Time;durP1;ratioP1;P1;durP2;ratioP2;P2;SDS_P1;SDS_P2;PMS_P1;PMS_P2;Temp;Humidity;BMP_temperature;BMP_pressure;BME280_temperature;BME280_humidity;BME280_pressure;Samples;Min_cycle;Max_cycle;Signal;HPM_P1;HPM_P2
2023/03/15 00:01:02;;;;;;;5.57;1.08;;;3.20;99.90;;;;;;5054434;28;20045;-88
2023/03/15 00:03:29;;;;;;;6.85;1.00;;;3.20;99.90;;;;;;5052767;28;20062;-89
2023/03/15 00:05:54;;;;;;;8.48;1.63;;;3.20;99.90;;;;;;5055051;28;20059;-88
2023/03/15 00:08:20;;;;;;;8.85;3.17;;;3.20;99.90;;;;;;5036937;28;20041;-89
2023/03/15 00:10:47;;;;;;;7.28;1.00;;;3.30;99.90;;;;;;5062226;28;20040;-88
2023/03/15 00:13:14;;;;;;;8.45;1.40;;;3.30;99.90;;;;;;5052794;28;20076;-89
2023/03/15 00:15:48;;;;;;;10.00;1.48;;;3.30;99.90;;;;;;5056151;28;20033;-90
2023/03/15 00:18:15;;;;;;;6.93;0.90;;;3.40;99.90;;;;;;5057891;28;20106;-89
2023/03/15 00:20:41;;;;;;;7.50;1.20;;;3.40;99.90;;;;;;5054441;28;20049;-89
2023/03/15 00:23:07;;;;;;;6.55;0.80;;;3.40;99.90;;;;;;5055269;28;20029;-89
2023/03/15 00:25:33;;;;;;;5.63;0.88;;;3.40;99.90;;;;;;5055180;28;20043;-89
2023/03/15 00:27:59;;;;;;;5.25;1.10;;;3.40;99.90;;;;;;5054669;28;20053;-88
2023/03/15 00:30:25;;;;;;;6.07;1.27;;;3.40;99.90;;;;;;5054428;28;20461;-89
2023/03/15 00:32:54;;;;;;;10.07;1.10;;;3.40;99.90;;;;;;5062349;28;20398;-88
2023/03/15 00:35:20;;;;;;;5.57;1.48;;;3.40;99.90;;;;;;5058309;28;20036;-89
2023/03/15 00:37:46;;;;;;;7.25;1.20;;;3.40;99.90;;;;;;5041065;28;20509;-88
2023/03/15 00:40:12;;;;;;;5.22;1.10;;;3.40;99.90;;;;;;5051429;28;20033;-89
2023/03/15 00:42:39;;;;;;;9.52;1.30;;;3.60;99.90;;;;;;5050965;28;20033;-88
2023/03/15 00:45:09;;;;;;;4.50;0.90;;;3.40;99.90;;;;;;5054739;28;20053;-89
2023/03/15 00:47:37;;;;;;;6.90;0.95;;;3.40;99.90;;;;;;5050360;28;20041;-88
2023/03/15 00:50:03;;;;;;;7.38;1.20;;;3.40;99.90;;;;;;5039794;28;20041;-88
2023/03/15 00:52:34;;;;;;;5.65;0.90;;;3.40;99.90;;;;;;5054842;28;20043;-89
2023/03/15 00:55:00;;;;;;;7.15;1.15;;;3.30;99.90;;;;;;5055796;28;20116;-88
2023/03/15 00:57:26;;;;;;;5.00;0.95;;;3.30;99.90;;;;;;5059379;28;20124;-88
2023/03/15 00:59:54;;;;;;;8.25;1.08;;;3.30;99.90;;;;;;5056196;28;20463;-89
2023/03/15 01:02:23;;;;;;;4.97;1.10;;;3.30;99.90;;;;;;5050728;28;20060;-89
2023/03/15 01:04:50;;;;;;;7.97;0.90;;;3.30;99.90;;;;;;5059753;28;20044;-89
2023/03/15 01:07:16;;;;;;;10.35;2.00;;;3.30;99.90;;;;;;5071187;28;20047;-89
2023/03/15 01:09:43;;;;;;;9.30;1.65;;;3.30;99.90;;;;;;5057598;28;20036;-89
2023/03/15 01:12:09;;;;;;;9.93;1.17;;;3.30;99.90;;;;;;5051380;28;20036;-89
2023/03/15 01:14:36;;;;;;;13.13;1.27;;;3.30;99.90;;;;;;5057590;28;20455;-89
2023/03/15 01:17:04;;;;;;;8.20;0.90;;;3.30;99.90;;;;;;5070635;28;20041;-88
2023/03/15 01:19:30;;;;;;;9.10;0.85;;;3.30;99.90;;;;;;5070507;28;20123;-89
2023/03/15 01:21:56;;;;;;;5.10;0.70;;;3.30;99.90;;;;;;5054681;28;20163;-88
2023/03/15 01:24:22;;;;;;;8.52;1.25;;;3.20;99.90;;;;;;5049044;28;20084;-89
2023/03/15 01:26:47;;;;;;;6.65;0.98;;;3.20;99.90;;;;;;5085776;28;20044;-89
2023/03/15 01:29:14;;;;;;;5.72;0.90;;;3.40;99.90;;;;;;5082673;28;20060;-89
2023/03/15 01:31:39;;;;;;;6.15;1.05;;;3.10;99.90;;;;;;5050609;28;20171;-89
2023/03/15 01:34:05;;;;;;;7.47;1.05;;;3.60;99.90;;;;;;5085084;28;20123;-89
2023/03/15 01:36:31;;;;;;;4.25;0.60;;;3.30;99.90;;;;;;5050297;28;20029;-88
2023/03/15 01:38:57;;;;;;;4.97;0.90;;;3.30;99.90;;;;;;5050414;28;20041;-89
2023/03/15 01:41:24;;;;;;;7.07;0.73;;;3.30;99.90;;;;;;5049985;28;20036;-89
2023/03/15 01:43:50;;;;;;;3.45;0.60;;;3.30;99.90;;;;;;5053966;28;20056;-89
2023/03/15 01:46:18;;;;;;;5.28;0.80;;;3.30;99.90;;;;;;5051746;28;20036;-89
2023/03/15 01:48:53;;;;;;;4.07;1.20;;;3.20;99.90;;;;;;5044221;28;20609;-89
2023/03/15 01:51:35;;;;;;;4.70;0.90;;;3.20;99.90;;;;;;5049629;28;20045;-89
2023/03/15 01:54:22;;;;;;;9.00;1.10;;;3.20;99.90;;;;;;5059113;28;20029;-89
2023/03/15 01:56:56;;;;;;;4.55;0.63;;;3.20;99.90;;;;;;5067934;28;20037;-89
2023/03/15 01:59:37;;;;;;;6.10;0.90;;;3.20;99.90;;;;;;5105131;28;20036;-89
2023/03/15 02:02:05;;;;;;;5.47;0.93;;;3.20;99.90;;;;;;5063716;28;20037;-89
2023/03/15 02:04:39;;;;;;;5.28;0.80;;;3.20;99.90;;;;;;5059503;28;20109;-89
2023/03/15 02:07:07;;;;;;;9.95;1.10;;;3.20;99.90;;;;;;5053814;28;20136;-88
2023/03/15 02:10:01;;;;;;;7.93;0.80;;;3.10;99.90;;;;;;5057048;28;20099;-90
2023/03/15 02:12:30;;;;;;;9.57;1.17;;;3.10;99.90;;;;;;5051183;28;20041;-89
2023/03/15 02:14:59;;;;;;;8.25;0.90;;;3.10;99.90;;;;;;5056251;28;20048;-89
2023/03/15 02:17:33;;;;;;;7.38;1.10;;;3.10;99.90;;;;;;5053392;28;20047;-88
2023/03/15 02:20:08;;;;;;;11.32;0.93;;;3.30;99.90;;;;;;5049707;28;20040;-89
2023/03/15 02:23:05;;;;;;;7.53;1.02;;;3.00;99.90;;;;;;5051550;28;20119;-88
2023/03/15 02:25:58;;;;;;;7.63;0.75;;;3.10;99.90;;;;;;5057102;28;20052;-89
2023/03/15 02:28:25;;;;;;;7.57;0.98;;;2.90;99.90;;;;;;5053861;28;20128;-88
2023/03/15 02:30:51;;;;;;;10.52;1.02;;;2.90;99.90;;;;;;5056792;28;20492;-87
2023/03/15 02:33:19;;;;;;;5.20;1.02;;;2.90;99.90;;;;;;5053646;28;20037;-88
2023/03/15 02:35:45;;;;;;;4.28;0.63;;;2.80;99.90;;;;;;5052359;28;20515;-88
2023/03/15 02:38:11;;;;;;;5.93;0.77;;;2.80;99.90;;;;;;5084571;28;20139;-89
2023/03/15 02:40:37;;;;;;;6.22;0.90;;;2.80;99.90;;;;;;5055450;28;20121;-88
2023/03/15 02:43:07;;;;;;;7.57;1.00;;;2.70;99.90;;;;;;5055820;28;20032;-88
2023/03/15 02:45:35;;;;;;;9.40;0.90;;;2.70;99.90;;;;;;5043087;28;20060;-89
2023/03/15 02:48:03;;;;;;;11.25;1.23;;;2.90;99.90;;;;;;5086340;28;20141;-88
2023/03/15 02:50:29;;;;;;;11.43;1.65;;;2.70;99.90;;;;;;5089855;28;20167;-89
2023/03/15 02:52:55;;;;;;;3.35;0.60;;;2.70;99.90;;;;;;5068074;28;20067;-88
2023/03/15 02:55:20;;;;;;;8.18;0.75;;;2.70;99.90;;;;;;5064801;28;20426;-89
2023/03/15 02:57:47;;;;;;;6.47;0.70;;;2.70;99.90;;;;;;5055297;28;20033;-89
2023/03/15 03:00:14;;;;;;;5.82;0.88;;;2.70;99.90;;;;;;5057045;28;20037;-86
2023/03/15 03:02:44;;;;;;;8.95;1.08;;;2.70;99.90;;;;;;5052574;28;20041;-87
2023/03/15 03:05:14;;;;;;;1.40;0.63;;;2.70;99.90;;;;;;5061252;28;20032;-87
2023/03/15 03:07:43;;;;;;;3.65;0.90;;;2.70;99.90;;;;;;5056875;28;20423;-87
2023/03/15 03:10:12;;;;;;;3.72;0.70;;;2.60;99.90;;;;;;5064717;28;20032;-87
2023/03/15 03:12:38;;;;;;;3.95;0.70;;;2.60;99.90;;;;;;5053823;28;20559;-87
2023/03/15 03:15:04;;;;;;;7.05;0.88;;;2.60;99.90;;;;;;5062994;28;20120;-86
2023/03/15 03:17:30;;;;;;;8.85;0.82;;;2.60;99.90;;;;;;5061474;28;20021;-87
2023/03/15 03:19:56;;;;;;;4.82;0.73;;;2.50;99.90;;;;;;5060465;28;20480;-87
2023/03/15 03:22:23;;;;;;;6.53;0.88;;;2.50;99.90;;;;;;5067635;28;20235;-87
2023/03/15 03:24:50;;;;;;;8.05;1.00;;;2.50;99.90;;;;;;5056405;28;20037;-86
2023/03/15 03:27:16;;;;;;;4.13;1.02;;;2.50;99.90;;;;;;5040926;28;20044;-87
2023/03/15 03:29:42;;;;;;;8.82;0.90;;;2.50;99.90;;;;;;5062369;28;20041;-86
2023/03/15 03:32:09;;;;;;;6.25;0.80;;;2.50;99.90;;;;;;5050349;28;20122;-87
2023/03/15 03:34:35;;;;;;;8.85;0.90;;;2.40;99.90;;;;;;5053891;28;20086;-86
2023/03/15 03:37:03;;;;;;;8.18;1.10;;;2.40;99.90;;;;;;5058547;28;20095;-87
2023/03/15 03:39:29;;;;;;;6.18;1.08;;;3.10;99.90;;;;;;5057403;28;20067;-87
2023/03/15 03:41:55;;;;;;;6.57;1.40;;;2.40;99.90;;;;;;5067548;28;20156;-86
2023/03/15 03:44:21;;;;;;;5.80;0.80;;;2.30;99.90;;;;;;5058123;28;20484;-87
2023/03/15 03:46:46;;;;;;;3.97;0.70;;;2.30;99.90;;;;;;5061605;28;20052;-88
2023/03/15 03:49:13;;;;;;;3.60;0.65;;;2.30;99.90;;;;;;5056522;28;20033;-87
2023/03/15 03:51:40;;;;;;;12.35;1.33;;;2.30;99.90;;;;;;5061741;28;20562;-88
2023/03/15 03:54:05;;;;;;;4.95;0.88;;;2.30;99.90;;;;;;5056619;28;20483;-87
2023/03/15 03:56:31;;;;;;;6.30;0.77;;;2.20;99.90;;;;;;5043116;28;20052;-88
2023/03/15 03:58:57;;;;;;;9.57;1.15;;;2.20;99.90;;;;;;5055411;28;20040;-87
2023/03/15 04:01:23;;;;;;;7.72;0.90;;;2.20;99.90;;;;;;5057111;28;20432;-87
2023/03/15 04:03:50;;;;;;;5.80;0.98;;;2.10;99.90;;;;;;5054872;28;20048;-87
2023/03/15 04:06:16;;;;;;;5.70;0.85;;;2.10;99.90;;;;;;5059513;28;20063;-87
2023/03/15 04:08:41;;;;;;;6.30;0.98;;;2.10;99.90;;;;;;5056489;28;20049;-88
2023/03/15 04:11:09;;;;;;;5.00;0.70;;;2.10;99.90;;;;;;5057053;28;20044;-87
2023/03/15 04:13:35;;;;;;;6.35;0.95;;;2.10;99.90;;;;;;5057237;28;20052;-87
2023/03/15 04:16:02;;;;;;;5.05;0.70;;;2.00;99.90;;;;;;5059602;28;20033;-87
2023/03/15 04:18:30;;;;;;;3.13;0.60;;;2.10;99.90;;;;;;5072484;28;20085;-87
2023/03/15 04:20:56;;;;;;;4.15;0.60;;;2.00;99.90;;;;;;5063092;28;20474;-87
2023/03/15 04:23:23;;;;;;;4.43;0.40;;;2.10;99.90;;;;;;5060203;28;20044;-87
2023/03/15 04:25:50;;;;;;;8.50;0.95;;;2.10;99.90;;;;;;5057494;28;20052;-87
2023/03/15 04:28:17;;;;;;;5.18;0.70;;;2.10;99.90;;;;;;5060974;28;20049;-87
2023/03/15 04:30:43;;;;;;;9.70;0.98;;;2.10;99.90;;;;;;5061792;28;20040;-90
2023/03/15 04:33:10;;;;;;;4.05;0.80;;;2.10;99.90;;;;;;5057386;28;20368;-88
2023/03/15 04:35:37;;;;;;;11.13;1.38;;;2.70;99.90;;;;;;5060838;28;20140;-88
2023/03/15 04:38:04;;;;;;;9.23;0.95;;;2.10;99.90;;;;;;5042516;28;20557;-87
2023/03/15 04:40:33;;;;;;;9.23;1.05;;;2.00;99.90;;;;;;5053683;28;20447;-87
2023/03/15 04:43:02;;;;;;;7.97;0.90;;;2.00;99.90;;;;;;5060334;28;20040;-87
2023/03/15 04:45:30;;;;;;;6.47;0.80;;;2.10;99.90;;;;;;5054291;28;20049;-88
2023/03/15 04:47:57;;;;;;;4.63;0.90;;;2.10;99.90;;;;;;5069659;28;20125;-87
2023/03/15 04:50:23;;;;;;;6.07;0.80;;;2.00;99.90;;;;;;5088510;28;20040;-87
2023/03/15 04:52:50;;;;;;;4.80;0.80;;;2.00;99.90;;;;;;5050640;28;20048;-87
2023/03/15 04:55:16;;;;;;;6.35;0.80;;;2.00;99.90;;;;;;5062411;28;20048;-87
2023/03/15 04:57:42;;;;;;;10.38;1.27;;;1.90;99.90;;;;;;5060035;28;20036;-87
2023/03/15 05:00:10;;;;;;;4.70;0.80;;;1.90;99.90;;;;;;5054720;28;20498;-87
2023/03/15 05:02:40;;;;;;;4.03;0.80;;;1.90;99.90;;;;;;5035393;28;20509;-87
2023/03/15 05:05:07;;;;;;;4.38;0.75;;;1.90;99.90;;;;;;5050655;28;20102;-87
2023/03/15 05:07:35;;;;;;;5.72;0.80;;;1.90;99.90;;;;;;5056160;28;20422;-87
2023/03/15 05:10:01;;;;;;;5.05;0.75;;;1.70;99.90;;;;;;5060150;28;20069;-88
2023/03/15 05:12:33;;;;;;;8.80;0.90;;;1.70;99.90;;;;;;5054517;28;20052;-87
2023/03/15 05:14:59;;;;;;;7.05;0.73;;;1.90;99.90;;;;;;5051868;28;20731;-87
2023/03/15 05:17:25;;;;;;;4.50;1.52;;;1.70;99.90;;;;;;5051297;28;20055;-87
2023/03/15 05:19:50;;;;;;;4.90;0.70;;;1.70;99.90;;;;;;5050716;28;20051;-88
2023/03/15 05:22:17;;;;;;;8.07;1.02;;;1.70;99.90;;;;;;5062840;28;20139;-87
2023/03/15 05:24:43;;;;;;;3.70;0.40;;;1.70;99.90;;;;;;5050882;28;20456;-87
2023/03/15 05:27:10;;;;;;;4.88;1.00;;;1.60;99.90;;;;;;5055999;28;20033;-88
2023/03/15 05:29:36;;;;;;;5.35;0.73;;;1.50;99.90;;;;;;5049222;28;20244;-87
2023/03/15 05:32:03;;;;;;;10.00;1.88;;;1.50;99.90;;;;;;5055859;28;20076;-87
2023/03/15 05:34:31;;;;;;;6.35;1.10;;;1.50;99.90;;;;;;5069097;28;20039;-87
2023/03/15 05:36:57;;;;;;;3.58;0.57;;;1.50;99.90;;;;;;5061547;28;20076;-87
2023/03/15 05:39:23;;;;;;;6.07;1.60;;;1.50;99.90;;;;;;5054898;28;20393;-87
2023/03/15 05:41:49;;;;;;;3.13;0.57;;;1.50;99.90;;;;;;5050561;28;20064;-88
2023/03/15 05:44:15;;;;;;;3.40;0.63;;;1.50;99.90;;;;;;5056491;28;20071;-86
2023/03/15 05:46:41;;;;;;;5.40;0.95;;;1.50;99.90;;;;;;5060313;28;20182;-88
2023/03/15 05:49:07;;;;;;;9.68;1.15;;;1.40;99.90;;;;;;5043253;28;20048;-88
2023/03/15 05:51:33;;;;;;;5.25;0.95;;;1.40;99.90;;;;;;5062513;28;20039;-87
2023/03/15 05:53:59;;;;;;;9.50;1.38;;;1.40;99.90;;;;;;5055143;28;20051;-87
2023/03/15 05:56:25;;;;;;;6.72;0.63;;;1.30;99.90;;;;;;5057956;28;20781;-87
2023/03/15 05:58:50;;;;;;;6.07;0.70;;;1.30;99.90;;;;;;5052905;28;20106;-88
2023/03/15 06:01:16;;;;;;;4.35;0.75;;;1.30;99.90;;;;;;5053260;28;20399;-88
2023/03/15 06:03:42;;;;;;;6.80;0.90;;;1.30;99.90;;;;;;5049860;28;20036;-88
2023/03/15 06:06:09;;;;;;;5.88;0.90;;;1.30;99.90;;;;;;5051566;28;20044;-87
2023/03/15 06:08:34;;;;;;;3.47;0.82;;;1.30;99.90;;;;;;5053219;28;20091;-87
2023/03/15 06:11:00;;;;;;;5.00;0.90;;;1.30;99.90;;;;;;5056971;28;20037;-88
2023/03/15 06:13:25;;;;;;;4.53;0.82;;;1.30;99.90;;;;;;5050064;28;20094;-88
2023/03/15 06:15:51;;;;;;;6.85;1.05;;;1.40;99.90;;;;;;5061407;28;20398;-88
2023/03/15 06:18:17;;;;;;;6.78;0.90;;;1.40;99.90;;;;;;5051033;28;20068;-87
2023/03/15 06:20:43;;;;;;;9.00;1.45;;;1.40;99.90;;;;;;5060184;28;20483;-88
2023/03/15 06:23:09;;;;;;;7.78;1.13;;;1.40;99.90;;;;;;5057188;28;20040;-94
2023/03/15 06:25:35;;;;;;;5.38;1.30;;;1.40;99.90;;;;;;5049067;28;20041;-86
2023/03/15 06:28:00;;;;;;;8.80;1.00;;;1.50;99.90;;;;;;5053950;28;20092;-88
2023/03/15 06:30:27;;;;;;;5.38;0.90;;;1.50;99.90;;;;;;5064231;28;20116;-88
2023/03/15 06:32:53;;;;;;;7.32;1.10;;;1.50;99.90;;;;;;5050161;28;20045;-87
2023/03/15 06:35:19;;;;;;;11.80;1.20;;;1.50;99.90;;;;;;5056167;28;20036;-89
2023/03/15 06:37:44;;;;;;;5.55;0.73;;;1.50;99.90;;;;;;5050218;28;20087;-88
2023/03/15 06:40:11;;;;;;;11.77;1.30;;;1.50;99.90;;;;;;5057914;28;20060;-88
2023/03/15 06:42:38;;;;;;;8.63;1.20;;;1.50;99.90;;;;;;5053047;28;20056;-88
2023/03/15 06:45:05;;;;;;;5.80;0.77;;;1.50;99.90;;;;;;5051988;28;20077;-89
2023/03/15 06:47:30;;;;;;;6.15;1.08;;;1.50;99.90;;;;;;5052427;28;20051;-88
2023/03/15 06:49:56;;;;;;;5.85;0.70;;;1.50;99.90;;;;;;5087890;28;20025;-88
2023/03/15 06:52:22;;;;;;;9.00;1.00;;;1.50;99.90;;;;;;5058040;28;20037;-87
2023/03/15 06:54:47;;;;;;;8.45;1.10;;;1.60;99.90;;;;;;5056829;28;20037;-88
2023/03/15 06:57:13;;;;;;;5.38;0.90;;;1.50;99.90;;;;;;5044877;28;20033;-88
2023/03/15 06:59:38;;;;;;;7.15;0.70;;;1.50;99.90;;;;;;5052443;28;20045;-88
2023/03/15 07:02:04;;;;;;;6.25;0.80;;;1.50;99.90;;;;;;5054552;28;20049;-88
2023/03/15 07:04:30;;;;;;;6.07;0.80;;;1.50;99.90;;;;;;5052522;28;20029;-87
2023/03/15 07:06:56;;;;;;;3.60;1.15;;;1.60;99.90;;;;;;5057283;28;20167;-89
2023/03/15 07:09:21;;;;;;;6.00;0.80;;;1.60;99.90;;;;;;5055021;28;20055;-88
2023/03/15 07:11:47;;;;;;;6.43;0.93;;;1.70;99.90;;;;;;5053190;28;20036;-87
2023/03/15 07:14:12;;;;;;;6.22;0.73;;;1.70;99.90;;;;;;5051683;28;20493;-87
2023/03/15 07:16:38;;;;;;;8.18;0.70;;;1.80;99.90;;;;;;5051254;28;20039;-88
2023/03/15 07:19:04;;;;;;;4.90;1.88;;;1.80;99.90;;;;;;5062272;28;20055;-88
2023/03/15 07:21:29;;;;;;;5.45;0.98;;;1.80;99.90;;;;;;5056595;28;20045;-87
2023/03/15 07:23:55;;;;;;;11.60;1.73;;;1.80;99.90;;;;;;5055906;28;20047;-88
2023/03/15 07:26:21;;;;;;;9.48;0.85;;;1.80;99.90;;;;;;5049883;28;20040;-87
2023/03/15 07:28:46;;;;;;;9.18;1.05;;;1.90;99.90;;;;;;5052952;28;20096;-88
2023/03/15 07:31:12;;;;;;;5.80;1.00;;;1.90;99.90;;;;;;5055286;28;20472;-88
2023/03/15 07:33:39;;;;;;;5.57;0.60;;;1.90;99.90;;;;;;5057437;28;20039;-88
2023/03/15 07:36:05;;;;;;;7.72;1.17;;;2.00;99.90;;;;;;5056416;28;20075;-88
2023/03/15 07:38:32;;;;;;;7.55;0.90;;;2.00;99.90;;;;;;5055102;28;20088;-88
2023/03/15 07:41:01;;;;;;;2.22;0.82;;;2.00;99.90;;;;;;5057455;28;20045;-88
2023/03/15 07:43:28;;;;;;;13.48;1.30;;;2.10;99.90;;;;;;5063057;28;20037;-88
2023/03/15 07:45:53;;;;;;;6.28;0.90;;;2.10;99.90;;;;;;5059167;28;20048;-87
2023/03/15 07:48:19;;;;;;;8.30;1.45;;;2.20;99.90;;;;;;5054713;28;20380;-84
2023/03/15 07:50:45;;;;;;;11.25;1.20;;;2.20;99.90;;;;;;5062311;28;20090;-89
2023/03/15 07:53:11;;;;;;;11.90;2.97;;;2.30;99.90;;;;;;5055025;28;20540;-85
2023/03/15 07:55:36;;;;;;;7.53;1.00;;;2.30;99.90;;;;;;5061826;28;20075;-84
2023/03/15 07:58:02;;;;;;;3.05;0.80;;;2.40;99.90;;;;;;5056184;28;20055;-91
2023/03/15 08:00:28;;;;;;;4.10;0.70;;;2.40;99.90;;;;;;5052199;28;20412;-90
2023/03/15 08:02:54;;;;;;;6.40;1.10;;;2.40;99.90;;;;;;5057792;28;20047;-88
2023/03/15 08:05:20;;;;;;;8.05;1.23;;;2.50;99.90;;;;;;5054354;28;20540;-88
2023/03/15 08:07:46;;;;;;;8.15;1.17;;;2.50;99.90;;;;;;5051620;28;20065;-88
2023/03/15 08:10:13;;;;;;;4.63;1.05;;;2.50;99.90;;;;;;5065800;28;20029;-91
2023/03/15 08:12:41;;;;;;;10.02;1.20;;;3.50;99.90;;;;;;5043898;28;20037;-92
2023/03/15 08:15:11;;;;;;;12.27;1.48;;;2.60;99.90;;;;;;5050898;28;20119;-93
2023/03/15 08:17:37;;;;;;;6.97;1.02;;;2.70;99.90;;;;;;5054986;28;20479;-88
2023/03/15 08:20:04;;;;;;;6.70;1.13;;;2.80;99.90;;;;;;5069900;28;20044;-90
2023/03/15 08:22:30;;;;;;;9.57;1.35;;;2.80;99.90;;;;;;5061424;28;20053;-94
2023/03/15 08:24:56;;;;;;;10.52;1.27;;;2.90;99.90;;;;;;5063168;28;20044;-92
2023/03/15 08:27:23;;;;;;;15.40;1.17;;;2.90;99.90;;;;;;5059393;28;20487;-93
2023/03/15 08:29:48;;;;;;;12.77;1.55;;;3.00;99.90;;;;;;5060291;28;20049;-94
2023/03/15 08:32:16;;;;;;;8.90;1.10;;;3.10;99.90;;;;;;5052021;28;20039;-92
2023/03/15 08:34:41;;;;;;;5.88;0.90;;;3.20;99.90;;;;;;5051708;28;20044;-93
2023/03/15 08:37:09;;;;;;;8.55;1.13;;;3.20;99.90;;;;;;5052198;28;20028;-92
2023/03/15 08:39:35;;;;;;;6.40;1.38;;;3.20;99.90;;;;;;5051939;28;20120;-93
2023/03/15 08:42:01;;;;;;;10.07;1.65;;;3.30;99.90;;;;;;5057890;28;20178;-93
2023/03/15 08:44:26;;;;;;;8.57;1.08;;;3.30;99.90;;;;;;5052029;28;20479;-92
2023/03/15 08:46:52;;;;;;;10.45;1.25;;;3.30;99.90;;;;;;5052315;28;20463;-93
2023/03/15 08:49:18;;;;;;;5.47;0.80;;;3.40;99.90;;;;;;5057079;28;20036;-93
2023/03/15 08:51:43;;;;;;;9.57;1.10;;;3.40;99.90;;;;;;5053095;28;20064;-94
2023/03/15 08:54:09;;;;;;;9.63;0.90;;;3.40;99.90;;;;;;5062745;28;20112;-93
2023/03/15 08:56:34;;;;;;;11.13;1.30;;;3.50;99.90;;;;;;5054692;28;20041;-93
2023/03/15 08:59:00;;;;;;;5.45;1.10;;;3.50;99.90;;;;;;5057561;28;20509;-93
2023/03/15 09:01:26;;;;;;;9.77;1.00;;;3.60;99.90;;;;;;5051416;28;20040;-93
2023/03/15 09:03:51;;;;;;;8.63;1.27;;;3.60;99.90;;;;;;5057598;28;20041;-92
2023/03/15 09:06:17;;;;;;;10.32;1.08;;;3.70;99.90;;;;;;5054641;28;20040;-93
2023/03/15 09:08:42;;;;;;;6.00;1.50;;;3.70;99.90;;;;;;5052632;28;20159;-92
2023/03/15 09:11:08;;;;;;;7.55;1.08;;;3.80;99.90;;;;;;5054864;28;20041;-94
2023/03/15 09:13:33;;;;;;;11.70;1.50;;;3.80;99.90;;;;;;5056680;28;20116;-95
2023/03/15 09:15:59;;;;;;;5.05;1.00;;;4.50;99.90;;;;;;5063115;28;20506;-92
2023/03/15 09:18:25;;;;;;;3.88;0.80;;;4.00;99.90;;;;;;5057132;28;20036;-94
2023/03/15 09:20:50;;;;;;;8.15;1.67;;;4.10;99.90;;;;;;5054774;28;20153;-94
2023/03/15 09:23:16;;;;;;;9.52;0.80;;;4.20;99.90;;;;;;5065423;28;20273;-93
2023/03/15 09:25:41;;;;;;;4.55;0.93;;;4.20;99.90;;;;;;5076067;28;20045;-92
2023/03/15 09:28:10;;;;;;;5.95;0.70;;;4.30;99.90;;;;;;5081715;28;20044;-93
2023/03/15 09:30:37;;;;;;;7.85;1.00;;;4.40;99.90;;;;;;5069797;28;20076;-94
2023/03/15 09:33:03;;;;;;;6.85;1.25;;;4.50;99.90;;;;;;5064829;28;20484;-93
2023/03/15 09:35:29;;;;;;;8.38;1.00;;;4.60;99.90;;;;;;5054009;28;20040;-93
2023/03/15 09:37:55;;;;;;;4.47;0.80;;;4.70;99.90;;;;;;5060764;28;20041;-94
2023/03/15 09:40:25;;;;;;;4.32;0.90;;;4.80;99.90;;;;;;5051601;28;20041;-94
2023/03/15 09:43:19;;;;;;;6.82;0.75;;;4.90;99.90;;;;;;5052993;28;20037;-94
2023/03/15 09:46:04;;;;;;;8.32;1.00;;;5.00;99.90;;;;;;5045313;28;20476;-92
2023/03/15 09:48:42;;;;;;;5.82;1.00;;;5.10;99.90;;;;;;5056752;28;20045;-94
2023/03/15 09:51:30;;;;;;;8.60;0.95;;;5.60;99.90;;;;;;5056462;28;20128;-93
2023/03/15 09:54:05;;;;;;;8.90;0.80;;;5.20;99.90;;;;;;5052213;28;20036;-94
2023/03/15 09:56:44;;;;;;;9.82;1.35;;;5.20;99.90;;;;;;5054749;28;20393;-94
2023/03/15 09:59:11;;;;;;;7.75;0.95;;;5.30;99.90;;;;;;5059093;28;20039;-93
2023/03/15 10:01:39;;;;;;;6.35;0.93;;;5.40;99.90;;;;;;5050293;28;20076;-94
2023/03/15 10:04:24;;;;;;;4.03;1.10;;;5.50;99.90;;;;;;5056344;28;20056;-93
2023/03/15 10:06:55;;;;;;;3.22;0.60;;;5.60;99.90;;;;;;5090849;28;20043;-92
2023/03/15 10:09:23;;;;;;;5.97;0.90;;;5.70;99.90;;;;;;5063448;28;20487;-93
2023/03/15 10:12:05;;;;;;;4.75;0.70;;;5.70;99.90;;;;;;5062476;28;20036;-93
2023/03/15 10:14:58;;;;;;;4.80;1.00;;;5.90;99.90;;;;;;5056488;28;20459;-92
2023/03/15 10:17:54;;;;;;;6.32;1.13;;;6.00;99.90;;;;;;5083374;28;20527;-92
2023/03/15 10:20:43;;;;;;;3.17;0.63;;;6.20;99.90;;;;;;5059568;28;20087;-93
2023/03/15 10:23:50;;;;;;;9.10;1.38;;;6.40;99.90;;;;;;5068650;28;20501;-92
2023/03/15 10:26:21;;;;;;;7.20;1.00;;;6.50;99.90;;;;;;5023884;28;20059;-93
2023/03/15 10:28:48;;;;;;;7.53;0.90;;;6.50;99.90;;;;;;5056346;28;20064;-92
2023/03/15 10:31:17;;;;;;;7.25;0.90;;;6.50;99.90;;;;;;5058003;28;20411;-93
2023/03/15 10:33:44;;;;;;;4.15;0.80;;;6.60;99.90;;;;;;5053424;28;20514;-91
2023/03/15 10:36:16;;;;;;;7.32;0.70;;;6.70;99.90;;;;;;5046922;28;20061;-94
2023/03/15 10:38:42;;;;;;;3.92;0.68;;;6.80;99.90;;;;;;5058224;28;20040;-92
2023/03/15 10:41:13;;;;;;;5.72;0.80;;;6.80;99.90;;;;;;5049668;28;20041;-94
2023/03/15 10:43:40;;;;;;;5.95;0.80;;;6.80;99.90;;;;;;5054318;28;20037;-94
2023/03/15 10:46:22;;;;;;;7.22;0.88;;;6.80;99.90;;;;;;5050588;28;20064;-93
2023/03/15 10:49:13;;;;;;;6.88;0.90;;;6.90;99.90;;;;;;5066356;28;20276;-93
2023/03/15 10:51:45;;;;;;;3.80;0.77;;;7.00;99.90;;;;;;5056188;28;20072;-92
2023/03/15 10:54:19;;;;;;;6.57;0.75;;;6.90;99.90;;;;;;5050630;28;20092;-92
2023/03/15 10:56:49;;;;;;;6.03;0.70;;;6.90;99.90;;;;;;5036585;28;20033;-94
2023/03/15 10:59:23;;;;;;;14.32;1.58;;;6.80;99.90;;;;;;5044563;28;20040;-92
2023/03/15 11:01:53;;;;;;;;;;;6.80;99.90;;;;;;5077597;28;20075;-93
2023/03/15 11:04:26;;;;;;;3.95;0.70;;;6.70;99.90;;;;;;5051987;28;19916;-93
2023/03/15 11:06:57;;;;;;;5.38;0.95;;;6.70;99.90;;;;;;5052339;28;20049;-92
2023/03/15 11:09:25;;;;;;;7.18;0.88;;;6.60;99.90;;;;;;5053101;28;20132;-92
2023/03/15 11:12:09;;;;;;;5.85;0.90;;;6.70;99.90;;;;;;5056211;28;20064;-93
2023/03/15 11:14:43;;;;;;;10.18;0.93;;;6.90;99.90;;;;;;5053120;28;20480;-94
2023/03/15 11:17:22;;;;;;;7.45;1.27;;;7.20;99.90;;;;;;5054092;28;20037;-91
2023/03/15 11:19:58;;;;;;;8.07;0.80;;;7.40;99.90;;;;;;5035775;28;20559;-92
2023/03/15 11:22:24;;;;;;;8.00;0.80;;;7.40;99.90;;;;;;5068046;28;20036;-94
2023/03/15 11:24:53;;;;;;;9.70;1.23;;;7.30;99.90;;;;;;5053996;28;20033;-93
2023/03/15 11:27:22;;;;;;;9.68;1.25;;;7.00;99.90;;;;;;5056048;28;20098;-93
2023/03/15 11:29:53;;;;;;;4.85;0.80;;;7.00;99.90;;;;;;5053170;28;20499;-92
2023/03/15 11:32:21;;;;;;;6.18;0.82;;;7.10;99.90;;;;;;5057414;28;20025;-93
2023/03/15 11:34:56;;;;;;;4.35;0.80;;;7.20;99.90;;;;;;5069298;28;20041;-93
2023/03/15 11:37:41;;;;;;;4.25;0.57;;;7.40;99.90;;;;;;5053534;28;20472;-94
2023/03/15 11:40:23;;;;;;;7.10;0.80;;;7.60;99.90;;;;;;5053775;28;20094;-92
2023/03/15 11:43:12;;;;;;;5.25;0.73;;;7.80;99.90;;;;;;5056465;28;20037;-93
2023/03/15 11:45:46;;;;;;;5.95;0.60;;;8.00;99.90;;;;;;5054853;28;20052;-94
2023/03/15 11:48:21;;;;;;;5.93;1.20;;;8.10;99.90;;;;;;5057093;28;20037;-96
2023/03/15 11:50:46;;;;;;;5.00;0.70;;;8.20;99.90;;;;;;5047388;23;20087;-95
2023/03/15 11:53:16;;;;;;;7.32;1.45;;;8.20;99.90;;;;;;5036508;28;20122;-95
2023/03/15 11:55:48;;;;;;;3.78;0.63;;;8.30;99.90;;;;;;5038303;28;20468;-87
2023/03/15 11:58:34;;;;;;;4.32;0.68;;;8.40;99.90;;;;;;5038241;28;20500;-84
2023/03/15 12:01:22;;;;;;;4.88;0.77;;;8.70;99.90;;;;;;5045325;28;20485;-96
2023/03/15 12:03:48;;;;;;;6.30;0.93;;;8.90;99.90;;;;;;5044156;28;20049;-80
2023/03/15 12:06:16;;;;;;;6.78;0.63;;;9.20;99.90;;;;;;5048750;28;20044;-83
2023/03/15 12:08:44;;;;;;;6.68;1.45;;;9.30;99.90;;;;;;5048102;28;20072;-93
2023/03/15 12:11:33;;;;;;;5.57;0.93;;;9.40;99.90;;;;;;5043286;28;20356;-95
2023/03/15 12:13:59;;;;;;;4.32;0.73;;;9.50;99.90;;;;;;5045878;28;20045;-87
2023/03/15 12:16:29;;;;;;;5.55;1.20;;;9.50;99.90;;;;;;5050461;28;20040;-95
2023/03/15 12:19:07;;;;;;;9.55;0.90;;;9.50;99.90;;;;;;5049925;28;20045;-94
2023/03/15 12:21:38;;;;;;;5.72;0.80;;;9.50;99.90;;;;;;5038279;28;20057;-92
2023/03/15 12:24:07;;;;;;;3.05;0.77;;;9.40;99.90;;;;;;5043555;28;20060;-94
2023/03/15 12:26:41;;;;;;;4.43;0.90;;;9.30;99.90;;;;;;5044749;28;20043;-94
2023/03/15 12:29:19;;;;;;;6.68;0.90;;;9.50;99.90;;;;;;5039231;28;20491;-94
2023/03/15 12:31:53;;;;;;;6.82;0.80;;;9.40;99.90;;;;;;5044951;28;20048;-93
2023/03/15 12:34:36;;;;;;;5.55;0.75;;;9.30;99.90;;;;;;5049036;28;20332;-94
2023/03/15 12:37:18;;;;;;;6.10;1.00;;;9.30;99.90;;;;;;5045017;28;20557;-90
2023/03/15 12:39:50;;;;;;;7.85;0.93;;;9.50;99.90;;;;;;5017756;28;20064;-96
2023/03/15 12:42:31;;;;;;;6.35;0.93;;;9.70;99.90;;;;;;5054592;28;20322;-95
2023/03/15 12:45:15;;;;;;;6.38;1.15;;;9.70;99.90;;;;;;5049979;28;20135;-96
2023/03/15 12:47:50;;;;;;;6.75;0.65;;;9.90;99.90;;;;;;5046472;28;20040;-95
2023/03/15 12:50:44;;;;;;;4.25;0.88;;;9.40;99.90;;;;;;5047888;28;20045;-91
2023/03/15 12:53:38;;;;;;;2.90;0.53;;;9.30;99.90;;;;;;5040070;28;20033;-91
2023/03/15 12:56:32;;;;;;;9.10;0.80;;;9.20;99.90;;;;;;5045439;28;20041;-91
2023/03/15 12:59:06;;;;;;;3.63;0.80;;;9.30;99.90;;;;;;5037962;28;20318;-90
2023/03/15 13:01:33;;;;;;;6.22;1.05;;;9.40;99.90;;;;;;5016015;28;20132;-90
2023/03/15 13:03:59;;;;;;;5.43;0.75;;;9.50;99.90;;;;;;5037355;28;20546;-92
2023/03/15 13:06:48;;;;;;;5.97;0.95;;;10.00;99.90;;;;;;5033375;28;20041;-89